Time;durP1;ratioP1;P1;durP2;ratioP2;P2;SDS_P1;SDS_P2;PMS_P1;PMS_P2;Temp;Humidity;BMP_temperature;BMP_pressure;BME280_temperature;BME280_humidity;BME280_pressure;Samples;Min_cycle;Max_cycle;Signal;HPM_P1;HPM_P2
2023/03/21 00:01:54;;;;;;;16.63;12.40;;;;;;;;;;4969951;28;20180;-71
2023/03/21 00:04:19;;;;;;;16.83;11.43;;;;;;;;;;4968400;28;20287;-71
2023/03/21 00:06:45;;;;;;;18.03;12.47;;;;;;;;;;4980101;28;20515;-71
2023/03/21 00:09:11;;;;;;;15.70;11.23;;;;;;;;;;4966031;28;20560;-71
2023/03/21 00:11:36;;;;;;;16.83;11.93;;;;;;;;;;4971022;28;20207;-71
2023/03/21 00:14:01;;;;;;;16.73;11.87;;;;;;;;;;4968143;28;20591;-72
2023/03/21 00:16:29;;;;;;;12.93;10.37;;;;;;;;;;4964540;28;20180;-71
2023/03/21 00:18:55;;;;;;;16.67;11.30;;;;;;;;;;4971246;28;20732;-70
2023/03/21 00:21:21;;;;;;;17.47;11.17;;;;;;;;;;4971547;28;20218;-70
2023/03/21 00:23:46;;;;;;;14.90;11.13;;;;;;;;;;4962274;28;20209;-71
2023/03/21 00:26:12;;;;;;;15.10;11.13;;;;;;;;;;4970243;28;20180;-71
2023/03/21 00:28:38;;;;;;;16.60;12.90;;;;;;;;;;4966590;28;20188;-71
2023/03/21 00:31:03;;;;;;;19.57;10.73;;;;;;;;;;4970256;28;20177;-70
2023/03/21 00:33:28;;;;;;;16.67;11.47;;;;;;;;;;4971384;28;20283;-70
2023/03/21 00:35:54;;;;;;;19.77;13.17;;;;;;;;;;4970893;28;20532;-69
2023/03/21 00:38:20;;;;;;;18.37;12.80;;;;;;;;;;4971327;28;20567;-70
2023/03/21 00:40:45;;;;;;;18.93;14.93;;;;;;;;;;4971292;28;20219;-71
2023/03/21 00:43:11;;;;;;;21.97;14.70;;;;;;;;;;4963029;28;20203;-71
2023/03/21 00:45:36;;;;;;;23.60;16.90;;;;;;;;;;4971150;28;20176;-71
2023/03/21 00:48:02;;;;;;;21.13;16.17;;;;;;;;;;4971602;28;20606;-71
2023/03/21 00:50:27;;;;;;;25.10;17.47;;;;;;;;;;4970578;28;20180;-71
2023/03/21 00:52:52;;;;;;;24.43;16.90;;;;;;;;;;4967468;28;20215;-71
2023/03/21 00:55:18;;;;;;;26.27;18.73;;;;;;;;;;4966660;28;20188;-71
2023/03/21 00:57:44;;;;;;;25.23;18.30;;;;;;;;;;4963922;28;20169;-71
2023/03/21 01:00:10;;;;;;;26.33;17.33;;;;;;;;;;4971283;28;20176;-71
2023/03/21 01:02:36;;;;;;;23.93;18.17;;;;;;;;;;4982659;28;20182;-71
2023/03/21 01:05:02;;;;;;;26.50;17.87;;;;;;;;;;4969656;28;20705;-71
2023/03/21 01:07:28;;;;;;;26.63;17.57;;;;;;;;;;4973525;28;20179;-71
2023/03/21 01:09:53;;;;;;;28.13;19.37;;;;;;;;;;4974224;28;20180;-71
2023/03/21 01:12:18;;;;;;;25.63;18.10;;;;;;;;;;4961106;28;20204;-71
2023/03/21 01:14:43;;;;;;;28.03;18.33;;;;;;;;;;4973775;28;20227;-71
2023/03/21 01:17:08;;;;;;;25.60;18.60;;;;;;;;;;4972705;28;20556;-71
2023/03/21 01:19:34;;;;;;;27.90;18.90;;;;;;;;;;4972047;28;20263;-71
2023/03/21 01:21:59;;;;;;;34.37;19.47;;;;;;;;;;4972863;28;20607;-72
2023/03/21 01:24:25;;;;;;;26.80;19.67;;;;;;;;;;4973287;28;20212;-71
2023/03/21 01:26:50;;;;;;;28.73;19.03;;;;;;;;;;4972884;28;20181;-70
2023/03/21 01:29:15;;;;;;;26.13;19.20;;;;;;;;;;4973825;28;20564;-70
2023/03/21 01:31:40;;;;;;;27.37;18.73;;;;;;;;;;4967919;28;20197;-71
2023/03/21 01:34:06;;;;;;;27.77;19.03;;;;;;;;;;4973182;28;20196;-71
2023/03/21 01:36:31;;;;;;;34.37;20.00;;;;;;;;;;4972447;28;20169;-71
2023/03/21 01:38:57;;;;;;;27.83;18.80;;;;;;;;;;4968133;28;20225;-71
2023/03/21 01:41:30;;;;;;;31.97;21.10;;;;;;;;;;4969934;28;20239;-70
2023/03/21 01:43:55;;;;;;;35.73;19.77;;;;;;;;;;4970947;28;20295;-70
2023/03/21 01:46:48;;;;;;;29.27;18.17;;;;;;;;;;4972120;28;20212;-71
2023/03/21 01:49:19;;;;;;;32.97;17.53;;;;;;;;;;4969054;28;21593;-70
2023/03/21 01:51:46;;;;;;;28.70;18.33;;;;;;;;;;4972182;28;20212;-70
2023/03/21 01:54:14;;;;;;;28.73;18.53;;;;;;;;;;4986704;28;20200;-70
2023/03/21 01:56:40;;;;;;;32.47;19.30;;;;;;;;;;4972493;28;20180;-71
2023/03/21 01:59:20;;;;;;;24.93;18.00;;;;;;;;;;4971210;28;20607;-70
2023/03/21 02:01:46;;;;;;;32.37;18.70;;;;;;;;;;4969668;28;20251;-70
2023/03/21 02:04:11;;;;;;;30.77;17.40;;;;;;;;;;4971660;28;20686;-70
2023/03/21 02:06:39;;;;;;;25.40;18.50;;;;;;;;;;4987635;28;20184;-71
2023/03/21 02:09:07;;;;;;;26.27;16.83;;;;;;;;;;4969777;28;20188;-70
2023/03/21 02:11:33;;;;;;;23.87;16.40;;;;;;;;;;4969901;28;20632;-70
2023/03/21 02:13:59;;;;;;;25.10;16.73;;;;;;;;;;4972690;28;20695;-72
2023/03/21 02:16:30;;;;;;;27.43;18.50;;;;;;;;;;4971911;28;20215;-70
2023/03/21 02:18:56;;;;;;;25.97;16.87;;;;;;;;;;4970271;28;20270;-70
2023/03/21 02:21:34;;;;;;;23.97;17.20;;;;;;;;;;4977258;28;20646;-70
2023/03/21 02:23:59;;;;;;;25.93;16.80;;;;;;;;;;4988997;22;20223;-73
2023/03/21 02:26:34;;;;;;;29.87;18.63;;;;;;;;;;4982876;28;20187;-73
2023/03/21 02:29:11;;;;;;;26.37;17.60;;;;;;;;;;4984299;28;20188;-73
2023/03/21 02:31:36;;;;;;;28.13;17.10;;;;;;;;;;4987798;28;20219;-73
2023/03/21 02:34:01;;;;;;;24.80;18.17;;;;;;;;;;4986205;28;20669;-73
2023/03/21 02:36:26;;;;;;;26.70;17.23;;;;;;;;;;4991852;28;20254;-75
2023/03/21 02:39:00;;;;;;;24.23;16.70;;;;;;;;;;4993271;28;20549;-72
2023/03/21 02:41:29;;;;;;;23.40;16.20;;;;;;;;;;4982085;28;20183;-74
2023/03/21 02:44:04;;;;;;;27.30;16.93;;;;;;;;;;4982221;28;20301;-75
2023/03/21 02:46:38;;;;;;;27.30;17.40;;;;;;;;;;4989596;28;20175;-74
2023/03/21 02:49:09;;;;;;;22.67;15.43;;;;;;;;;;4991954;28;20186;-74
2023/03/21 02:51:36;;;;;;;24.93;15.47;;;;;;;;;;4992546;28;20225;-74
2023/03/21 02:54:03;;;;;;;21.27;14.77;;;;;;;;;;4992876;28;20208;-74
2023/03/21 02:56:30;;;;;;;21.30;14.47;;;;;;;;;;4989605;28;20236;-74
2023/03/21 02:58:55;;;;;;;22.20;14.00;;;;;;;;;;4991931;28;20198;-73
2023/03/21 03:01:20;;;;;;;20.87;13.47;;;;;;;;;;4985333;28;20647;-73
2023/03/21 03:03:46;;;;;;;21.20;12.93;;;;;;;;;;4987458;28;20199;-73
2023/03/21 03:06:19;;;;;;;19.70;13.07;;;;;;;;;;4991495;28;20215;-73
2023/03/21 03:08:51;;;;;;;21.70;12.97;;;;;;;;;;4992540;28;20179;-73
2023/03/21 03:11:16;;;;;;;24.40;12.67;;;;;;;;;;4991746;28;20461;-73
2023/03/21 03:13:41;;;;;;;18.23;12.10;;;;;;;;;;4990731;28;20640;-73
2023/03/21 03:16:06;;;;;;;16.23;9.67;;;;;;;;;;4991551;28;20263;-73
2023/03/21 03:18:45;;;;;;;16.20;12.53;;;;;;;;;;4994193;28;20214;-74
2023/03/21 03:21:30;;;;;;;16.07;11.17;;;;;;;;;;4994912;28;20190;-73
2023/03/21 03:24:01;;;;;;;17.37;10.23;;;;;;;;;;4989339;28;20207;-73
2023/03/21 03:26:35;;;;;;;19.60;11.90;;;;;;;;;;4993013;28;20182;-73
2023/03/21 03:29:03;;;;;;;17.63;12.97;;;;;;;;;;4992745;28;20179;-73
2023/03/21 03:31:31;;;;;;;17.90;10.97;;;;;;;;;;4993690;28;20661;-73
2023/03/21 03:33:59;;;;;;;22.57;12.63;;;;;;;;;;4991709;28;20254;-73
2023/03/21 03:36:28;;;;;;;18.37;11.93;;;;;;;;;;4989708;28;20231;-73
2023/03/21 03:38:54;;;;;;;19.77;11.87;;;;;;;;;;4991082;28;20593;-73
2023/03/21 03:41:27;;;;;;;26.03;12.93;;;;;;;;;;4985730;28;20258;-73
2023/03/21 03:43:54;;;;;;;17.30;10.30;;;;;;;;;;4992259;28;20628;-74
2023/03/21 03:46:32;;;;;;;22.50;11.27;;;;;;;;;;4985142;28;20262;-73
2023/03/21 03:48:59;;;;;;;22.43;11.43;;;;;;;;;;4992154;28;20183;-73
2023/03/21 03:51:27;;;;;;;19.43;11.97;;;;;;;;;;4991359;28;20234;-73
2023/03/21 03:53:57;;;;;;;16.70;11.80;;;;;;;;;;4989435;28;20204;-73
2023/03/21 03:56:24;;;;;;;16.40;12.33;;;;;;;;;;4985669;28;20668;-74
2023/03/21 03:58:49;;;;;;;27.43;14.93;;;;;;;;;;4991980;28;20672;-73
2023/03/21 04:01:14;;;;;;;23.00;13.03;;;;;;;;;;4989434;28;20183;-75
2023/03/21 04:03:41;;;;;;;20.00;14.70;;;;;;;;;;4990038;28;20208;-73
2023/03/21 04:06:07;;;;;;;19.43;12.87;;;;;;;;;;4988674;28;20258;-73
2023/03/21 04:08:32;;;;;;;21.03;14.40;;;;;;;;;;4991558;28;20214;-73
2023/03/21 04:10:57;;;;;;;23.20;14.50;;;;;;;;;;4988239;28;20920;-73
2023/03/21 04:13:22;;;;;;;27.00;14.70;;;;;;;;;;4990421;28;20230;-73
2023/03/21 04:15:48;;;;;;;24.23;14.47;;;;;;;;;;4991416;28;20183;-74
2023/03/21 04:18:13;;;;;;;29.80;15.43;;;;;;;;;;4993503;28;20270;-73
2023/03/21 04:20:38;;;;;;;30.03;15.37;;;;;;;;;;4992518;28;20657;-73
2023/03/21 04:23:04;;;;;;;24.13;15.57;;;;;;;;;;4987687;28;20184;-74
2023/03/21 04:25:32;;;;;;;27.87;16.47;;;;;;;;;;4991788;28;20262;-74
2023/03/21 04:27:57;;;;;;;25.30;16.43;;;;;;;;;;4985809;28;20709;-74
2023/03/21 04:30:23;;;;;;;27.20;16.37;;;;;;;;;;4990422;28;20184;-75
2023/03/21 04:32:52;;;;;;;29.90;16.43;;;;;;;;;;4989585;28;20204;-74
2023/03/21 04:35:19;;;;;;;28.33;17.80;;;;;;;;;;4991338;28;20199;-74
2023/03/21 04:37:44;;;;;;;24.40;16.10;;;;;;;;;;4991542;28;20179;-74
2023/03/21 04:40:10;;;;;;;23.40;15.43;;;;;;;;;;4988585;28;20183;-74
2023/03/21 04:42:35;;;;;;;27.40;17.83;;;;;;;;;;4994369;28;20198;-74
2023/03/21 04:45:00;;;;;;;24.93;16.40;;;;;;;;;;4995176;28;20203;-74
2023/03/21 04:47:26;;;;;;;28.40;18.40;;;;;;;;;;4995851;28;20178;-74
2023/03/21 04:49:52;;;;;;;27.33;16.90;;;;;;;;;;4996300;28;20657;-74
2023/03/21 04:52:17;;;;;;;35.17;17.73;;;;;;;;;;4990466;28;20207;-74
2023/03/21 04:54:43;;;;;;;27.73;17.17;;;;;;;;;;4994385;28;20196;-74
2023/03/21 04:57:08;;;;;;;26.63;16.53;;;;;;;;;;4993812;28;20191;-74
2023/03/21 04:59:33;;;;;;;28.20;17.50;;;;;;;;;;4992894;28;20259;-74
2023/03/21 05:01:59;;;;;;;24.73;15.37;;;;;;;;;;4994366;28;20183;-74
2023/03/21 05:04:25;;;;;;;21.40;15.20;;;;;;;;;;4986489;28;20192;-73
2023/03/21 05:06:50;;;;;;;26.70;15.10;;;;;;;;;;4985661;28;20248;-73
2023/03/21 05:09:16;;;;;;;27.60;15.07;;;;;;;;;;4990851;28;20577;-73
2023/03/21 05:11:41;;;;;;;30.00;17.23;;;;;;;;;;4990052;28;20208;-73
2023/03/21 05:14:07;;;;;;;22.47;14.03;;;;;;;;;;4982834;28;20194;-73
2023/03/21 05:16:33;;;;;;;20.70;14.43;;;;;;;;;;4986212;28;20551;-74
2023/03/21 05:19:02;;;;;;;21.50;13.83;;;;;;;;;;4984540;28;20171;-74
2023/03/21 05:21:28;;;;;;;22.57;14.93;;;;;;;;;;4986512;28;20173;-73
2023/03/21 05:23:54;;;;;;;21.30;14.33;;;;;;;;;;4987034;28;20685;-73
2023/03/21 05:26:20;;;;;;;22.63;13.73;;;;;;;;;;4980169;28;20176;-73
2023/03/21 05:28:46;;;;;;;21.50;12.80;;;;;;;;;;4995368;28;20653;-73
2023/03/21 05:31:15;;;;;;;22.87;13.40;;;;;;;;;;4982599;28;20188;-73
2023/03/21 05:33:40;;;;;;;21.60;13.40;;;;;;;;;;4988895;28;20259;-73
2023/03/21 05:36:06;;;;;;;27.53;14.07;;;;;;;;;;4988060;28;20184;-73
2023/03/21 05:38:31;;;;;;;21.10;12.90;;;;;;;;;;4988335;28;20629;-73
2023/03/21 05:40:56;;;;;;;24.77;12.60;;;;;;;;;;4991167;28;20611;-74
2023/03/21 05:43:21;;;;;;;30.80;12.93;;;;;;;;;;4986901;28;20180;-73
2023/03/21 05:45:47;;;;;;;23.40;12.87;;;;;;;;;;4990263;28;20230;-73
2023/03/21 05:48:12;;;;;;;24.63;12.03;;;;;;;;;;4984499;28;20182;-75
2023/03/21 05:50:38;;;;;;;20.37;11.80;;;;;;;;;;4988407;28;20188;-72
2023/03/21 05:53:03;;;;;;;23.27;11.80;;;;;;;;;;4986061;28;20204;-74
2023/03/21 05:55:28;;;;;;;18.67;11.23;;;;;;;;;;4988602;28;20188;-72
2023/03/21 05:57:53;;;;;;;18.63;11.43;;;;;;;;;;4988253;28;20277;-72
2023/03/21 06:00:20;;;;;;;18.27;10.67;;;;;;;;;;4983271;28;20681;-73
2023/03/21 06:02:46;;;;;;;16.33;10.80;;;;;;;;;;4989983;28;20210;-73
2023/03/21 06:05:11;;;;;;;26.23;11.80;;;;;;;;;;4983991;28;20678;-74
2023/03/21 06:07:36;;;;;;;18.17;11.47;;;;;;;;;;4989745;28;20274;-72
2023/03/21 06:10:02;;;;;;;18.80;10.50;;;;;;;;;;4990900;28;20243;-72
2023/03/21 06:12:28;;;;;;;17.73;11.07;;;;;;;;;;4985900;28;20696;-74
2023/03/21 06:14:53;;;;;;;21.07;11.87;;;;;;;;;;4984258;28;20283;-72
2023/03/21 06:17:18;;;;;;;22.43;11.00;;;;;;;;;;4990690;28;20180;-74
2023/03/21 06:19:44;;;;;;;20.50;11.20;;;;;;;;;;4985592;28;20189;-74
2023/03/21 06:22:09;;;;;;;15.57;9.90;;;;;;;;;;4996560;28;20180;-75
2023/03/21 06:24:34;;;;;;;16.17;9.50;;;;;;;;;;4983154;28;20216;-74
2023/03/21 06:27:00;;;;;;;20.37;11.30;;;;;;;;;;4984716;28;20706;-74
2023/03/21 06:29:25;;;;;;;19.23;9.97;;;;;;;;;;4990680;28;20188;-74
2023/03/21 06:31:50;;;;;;;17.50;9.90;;;;;;;;;;4984861;28;20210;-74
2023/03/21 06:34:15;;;;;;;16.43;10.10;;;;;;;;;;4986408;28;20630;-74
2023/03/21 06:36:43;;;;;;;19.53;10.63;;;;;;;;;;4990748;28;20199;-73
2023/03/21 06:39:09;;;;;;;19.93;10.40;;;;;;;;;;4985726;28;20554;-74
2023/03/21 06:41:34;;;;;;;19.33;9.83;;;;;;;;;;4987009;28;20539;-73
2023/03/21 06:44:00;;;;;;;15.23;9.17;;;;;;;;;;4985067;28;20192;-73
2023/03/21 06:46:25;;;;;;;20.20;9.50;;;;;;;;;;4988437;28;20717;-73
2023/03/21 06:48:50;;;;;;;12.27;8.37;;;;;;;;;;4986965;28;20226;-74
2023/03/21 06:51:15;;;;;;;15.67;9.13;;;;;;;;;;4978111;28;20180;-73
2023/03/21 06:53:41;;;;;;;15.87;8.77;;;;;;;;;;4989036;28;20204;-74
2023/03/21 06:56:07;;;;;;;15.70;8.27;;;;;;;;;;4986024;28;20531;-74
2023/03/21 06:58:32;;;;;;;16.63;8.90;;;;;;;;;;4989193;28;20199;-74
2023/03/21 07:00:58;;;;;;;16.90;9.10;;;;;;;;;;4987850;28;20630;-73
2023/03/21 07:03:24;;;;;;;17.53;9.87;;;;;;;;;;4984976;28;20211;-74
2023/03/21 07:05:49;;;;;;;19.63;9.00;;;;;;;;;;4982336;28;20175;-74
2023/03/21 07:08:14;;;;;;;13.83;8.70;;;;;;;;;;4988056;28;20188;-74
2023/03/21 07:10:41;;;;;;;19.80;9.47;;;;;;;;;;4984610;28;20207;-74
2023/03/21 07:13:06;;;;;;;13.60;8.73;;;;;;;;;;4981593;28;20217;-74
2023/03/21 07:15:33;;;;;;;15.53;8.57;;;;;;;;;;4983625;28;20266;-74
2023/03/21 07:17:58;;;;;;;16.33;8.63;;;;;;;;;;4983983;28;20688;-74
2023/03/21 07:20:25;;;;;;;15.57;9.30;;;;;;;;;;4986482;28;20175;-74
2023/03/21 07:22:50;;;;;;;18.80;9.73;;;;;;;;;;4984943;28;20191;-74
2023/03/21 07:25:16;;;;;;;20.10;9.23;;;;;;;;;;4984667;28;20606;-74
2023/03/21 07:27:41;;;;;;;21.07;11.17;;;;;;;;;;4985674;28;20183;-74
2023/03/21 07:30:07;;;;;;;15.70;8.77;;;;;;;;;;4990244;28;20559;-74
2023/03/21 07:32:33;;;;;;;15.97;8.90;;;;;;;;;;4985878;28;20203;-74
2023/03/21 07:34:59;;;;;;;13.47;8.80;;;;;;;;;;4987408;28;20207;-74
2023/03/21 07:37:25;;;;;;;14.27;8.37;;;;;;;;;;4987664;28;20172;-75
2023/03/21 07:39:50;;;;;;;17.70;9.20;;;;;;;;;;4989376;28;20237;-75
2023/03/21 07:42:16;;;;;;;12.97;8.10;;;;;;;;;;4988071;28;20190;-72
2023/03/21 07:44:41;;;;;;;16.33;8.77;;;;;;;;;;4982930;28;20222;-72
2023/03/21 07:47:06;;;;;;;12.93;7.40;;;;;;;;;;4990309;28;20191;-75
2023/03/21 07:49:32;;;;;;;16.17;8.70;;;;;;;;;;4982892;28;20207;-75
2023/03/21 07:51:58;;;;;;;15.67;7.30;;;;;;;;;;4984209;28;20200;-72
2023/03/21 07:54:23;;;;;;;14.17;7.73;;;;;;;;;;4985572;28;20191;-75
2023/03/21 07:56:49;;;;;;;10.07;7.47;;;;;;;;;;4984591;28;20180;-75
2023/03/21 07:59:14;;;;;;;14.37;7.87;;;;;;;;;;4987045;28;20183;-75
2023/03/21 08:01:39;;;;;;;13.63;8.50;;;;;;;;;;4979123;28;20180;-74
2023/03/21 08:04:05;;;;;;;18.20;9.17;;;;;;;;;;4986613;28;20206;-75
2023/03/21 08:06:31;;;;;;;14.67;7.47;;;;;;;;;;4980228;28;20590;-74
2023/03/21 08:08:56;;;;;;;13.20;7.50;;;;;;;;;;4988813;28;20184;-74
2023/03/21 08:11:23;;;;;;;15.20;7.60;;;;;;;;;;4984606;28;20623;-75
2023/03/21 08:13:50;;;;;;;12.77;8.03;;;;;;;;;;4981354;28;20203;-74
2023/03/21 08:16:15;;;;;;;18.97;10.13;;;;;;;;;;4984384;28;20188;-74
2023/03/21 08:18:41;;;;;;;15.17;7.70;;;;;;;;;;4987639;28;20227;-74
2023/03/21 08:21:06;;;;;;;16.40;7.60;;;;;;;;;;4991028;28;20182;-74
2023/03/21 08:23:32;;;;;;;17.27;8.27;;;;;;;;;;4989219;28;20283;-74
2023/03/21 08:25:57;;;;;;;17.60;9.17;;;;;;;;;;4983668;28;20249;-73
2023/03/21 08:28:23;;;;;;;13.73;7.13;;;;;;;;;;4994107;28;20598;-74
2023/03/21 08:30:48;;;;;;;14.73;8.00;;;;;;;;;;4985074;28;20226;-74
2023/03/21 08:33:14;;;;;;;11.97;6.87;;;;;;;;;;4990415;28;20223;-74
2023/03/21 08:35:39;;;;;;;13.87;6.50;;;;;;;;;;4986630;28;20171;-73
2023/03/21 08:38:04;;;;;;;12.43;7.13;;;;;;;;;;4991795;28;20184;-72
2023/03/21 08:40:30;;;;;;;13.13;6.87;;;;;;;;;;4990543;28;20529;-73
2023/03/21 08:42:55;;;;;;;13.37;6.83;;;;;;;;;;4991878;28;20279;-73
2023/03/21 08:45:21;;;;;;;16.37;7.50;;;;;;;;;;4994132;28;20227;-73
2023/03/21 08:47:47;;;;;;;10.47;6.13;;;;;;;;;;4987183;28;20499;-73
2023/03/21 08:50:14;;;;;;;13.25;6.35;;;;;;;;;;4991469;28;20175;-75
2023/03/21 08:52:40;;;;;;;11.10;6.70;;;;;;;;;;4986758;28;20254;-73
2023/03/21 08:55:05;;;;;;;11.63;5.80;;;;;;;;;;4992517;28;20446;-73
2023/03/21 08:57:30;;;;;;;11.00;6.97;;;;;;;;;;4985929;28;20804;-73
2023/03/21 08:59:56;;;;;;;12.32;5.78;;;;;;;;;;4987114;28;20187;-73
2023/03/21 09:02:21;;;;;;;11.17;5.97;;;;;;;;;;4988233;28;20664;-73
2023/03/21 09:04:46;;;;;;;15.90;6.53;;;;;;;;;;4989595;28;20196;-73
2023/03/21 09:07:13;;;;;;;14.10;6.23;;;;;;;;;;4993753;28;20172;-73
2023/03/21 09:09:40;;;;;;;8.37;5.70;;;;;;;;;;4989868;28;20176;-73
2023/03/21 09:12:05;;;;;;;10.47;5.37;;;;;;;;;;4991869;28;20666;-74
2023/03/21 09:14:31;;;;;;;16.70;6.10;;;;;;;;;;4985587;28;20200;-73
2023/03/21 09:16:57;;;;;;;11.53;6.13;;;;;;;;;;4990422;28;20360;-74
2023/03/21 09:19:23;;;;;;;15.77;6.43;;;;;;;;;;4982814;28;20645;-74
2023/03/21 09:21:48;;;;;;;9.90;5.93;;;;;;;;;;4993475;28;20591;-73
2023/03/21 09:24:14;;;;;;;9.17;5.53;;;;;;;;;;4984444;28;20274;-73
2023/03/21 09:26:40;;;;;;;13.60;6.77;;;;;;;;;;4987773;28;20215;-74
2023/03/21 09:29:06;;;;;;;11.93;5.90;;;;;;;;;;4988077;28;20233;-73
2023/03/21 09:31:32;;;;;;;12.40;6.38;;;;;;;;;;4986615;28;20191;-72
2023/03/21 09:33:57;;;;;;;16.80;7.22;;;;;;;;;;4995000;28;20208;-72
2023/03/21 09:36:23;;;;;;;12.13;6.55;;;;;;;;;;4985112;28;20200;-72
2023/03/21 09:38:49;;;;;;;13.45;6.63;;;;;;;;;;4992271;28;20237;-72
2023/03/21 09:41:33;;;;;;;16.13;7.20;;;;;;;;;;4985930;28;20270;-72
2023/03/21 09:43:59;;;;;;;13.05;6.70;;;;;;;;;;4984681;28;20751;-72
2023/03/21 09:46:27;;;;;;;12.30;6.97;;;;;;;;;;4988487;28;20180;-73
2023/03/21 09:48:58;;;;;;;10.38;6.18;;;;;;;;;;4987555;28;20654;-72
2023/03/21 09:51:39;;;;;;;10.73;5.97;;;;;;;;;;4984438;28;20187;-72
2023/03/21 09:54:07;;;;;;;12.48;6.72;;;;;;;;;;4985969;28;20588;-72
2023/03/21 09:56:35;;;;;;;13.70;6.00;;;;;;;;;;4991452;28;20697;-72
2023/03/21 09:59:01;;;;;;;10.85;5.85;;;;;;;;;;4982710;28;20184;-72
2023/03/21 10:01:31;;;;;;;10.15;6.22;;;;;;;;;;4991345;28;20180;-72
2023/03/21 10:03:59;;;;;;;12.73;6.18;;;;;;;;;;4988315;28;20228;-72
2023/03/21 10:06:29;;;;;;;13.43;6.18;;;;;;;;;;4993938;28;20187;-73
2023/03/21 10:08:57;;;;;;;14.32;6.63;;;;;;;;;;4989351;28;20263;-72
2023/03/21 10:11:31;;;;;;;10.63;6.13;;;;;;;;;;4991205;28;20206;-72
2023/03/21 10:14:00;;;;;;;7.78;5.63;;;;;;;;;;4986730;28;20235;-72
2023/03/21 10:16:30;;;;;;;9.45;5.75;;;;;;;;;;4990612;28;20211;-72
2023/03/21 10:18:56;;;;;;;10.88;5.10;;;;;;;;;;4988583;28;20172;-72
2023/03/21 10:21:23;;;;;;;10.10;5.55;;;;;;;;;;4988401;28;20654;-72
2023/03/21 10:23:50;;;;;;;8.60;5.10;;;;;;;;;;4984631;28;20743;-72
2023/03/21 10:26:16;;;;;;;9.73;6.60;;;;;;;;;;4993784;28;20668;-72
2023/03/21 10:28:42;;;;;;;8.40;5.90;;;;;;;;;;4993729;28;20176;-72
2023/03/21 10:31:08;;;;;;;15.68;6.93;;;;;;;;;;4994821;28;20179;-72
2023/03/21 10:33:38;;;;;;;8.75;5.82;;;;;;;;;;4983375;28;20714;-72
2023/03/21 10:36:08;;;;;;;7.35;5.68;;;;;;;;;;4975520;28;20188;-72
2023/03/21 10:38:34;;;;;;;8.85;5.70;;;;;;;;;;4988965;28;20172;-72
2023/03/21 10:40:59;;;;;;;11.07;6.88;;;;;;;;;;4994513;28;20546;-72
2023/03/21 10:43:24;;;;;;;11.43;6.00;;;;;;;;;;4981963;28;20553;-72
2023/03/21 10:45:50;;;;;;;12.93;6.03;;;;;;;;;;4985138;28;20270;-72
2023/03/21 10:48:15;;;;;;;8.63;5.47;;;;;;;;;;4982394;28;20183;-72
2023/03/21 10:50:42;;;;;;;10.95;5.85;;;;;;;;;;4978693;28;20263;-72
2023/03/21 10:53:13;;;;;;;9.55;6.05;;;;;;;;;;4982915;28;20211;-72
2023/03/21 10:55:39;;;;;;;9.23;5.38;;;;;;;;;;4980546;28;20654;-72
2023/03/21 10:58:09;;;;;;;7.22;5.60;;;;;;;;;;4992621;28;20600;-72
2023/03/21 11:00:36;;;;;;;9.55;5.97;;;;;;;;;;4991685;28;20731;-72
2023/03/21 11:03:02;;;;;;;9.93;5.70;;;;;;;;;;4985686;28;20266;-72
2023/03/21 11:05:35;;;;;;;11.95;6.20;;;;;;;;;;4981321;28;20192;-72
2023/03/21 11:08:11;;;;;;;9.50;5.38;;;;;;;;;;4981960;28;20191;-72
2023/03/21 11:10:46;;;;;;;16.48;7.53;;;;;;;;;;4985043;28;20187;-72
2023/03/21 11:13:17;;;;;;;9.80;5.32;;;;;;;;;;4983552;28;20200;-71
2023/03/21 11:15:50;;;;;;;7.45;5.22;;;;;;;;;;4985485;28;20270;-73
2023/03/21 11:18:20;;;;;;;11.30;6.20;;;;;;;;;;4980467;28;20562;-73
2023/03/21 11:20:53;;;;;;;11.30;5.82;;;;;;;;;;4990717;28;20179;-73
2023/03/21 11:23:19;;;;;;;10.70;5.38;;;;;;;;;;4988699;28;20179;-73
2023/03/21 11:25:46;;;;;;;12.15;6.15;;;;;;;;;;4983388;28;20677;-72
2023/03/21 11:28:14;;;;;;;8.20;5.70;;;;;;;;;;4982253;28;20191;-73
2023/03/21 11:30:56;;;;;;;10.70;6.60;;;;;;;;;;4977300;28;20305;-73
2023/03/21 11:33:22;;;;;;;8.48;5.88;;;;;;;;;;4983853;28;20199;-73
2023/03/21 11:35:57;;;;;;;10.57;5.78;;;;;;;;;;4984919;28;20182;-71
2023/03/21 11:38:25;;;;;;;10.13;5.05;;;;;;;;;;4982064;28;20167;-73
2023/03/21 11:40:56;;;;;;;10.98;6.32;;;;;;;;;;4981721;28;20204;-72
2023/03/21 11:43:22;;;;;;;9.20;5.75;;;;;;;;;;4979189;28;20571;-73
2023/03/21 11:45:57;;;;;;;13.32;6.28;;;;;;;;;;4990930;28;20187;-73
2023/03/21 11:48:22;;;;;;;9.23;5.88;;;;;;;;;;4983723;28;20270;-73
2023/03/21 11:50:49;;;;;;;9.68;5.95;;;;;;;;;;4980755;28;20614;-72
2023/03/21 11:53:17;;;;;;;11.00;6.47;;;;;;;;;;4985862;28;20231;-72
2023/03/21 11:55:55;;;;;;;11.27;6.60;;;;;;;;;;4983062;28;20184;-72
2023/03/21 11:58:33;;;;;;;12.73;6.45;;;;;;;;;;4986523;28;20218;-72
2023/03/21 12:01:07;;;;;;;10.00;6.45;;;;;;;;;;4985527;28;20175;-72
2023/03/21 12:03:45;;;;;;;10.85;6.28;;;;;;;;;;4984401;28;20286;-72
2023/03/21 12:06:19;;;;;;;15.27;6.00;;;;;;;;;;4982288;28;20184;-72
2023/03/21 12:08:50;;;;;;;9.05;6.20;;;;;;;;;;4978258;28;20234;-73
2023/03/21 12:11:36;;;;;;;8.35;6.03;;;;;;;;;;4988326;28;20258;-73
2023/03/21 12:14:01;;;;;;;8.75;7.22;;;;;;;;;;4984725;28;20205;-73
2023/03/21 12:16:32;;;;;;;13.07;7.45;;;;;;;;;;4979491;28;20251;-73
2023/03/21 12:18:57;;;;;;;9.18;6.30;;;;;;;;;;4986838;28;20184;-70
2023/03/21 12:21:29;;;;;;;11.10;7.43;;;;;;;;;;4982586;28;20175;-73
2023/03/21 12:23:54;;;;;;;12.50;7.07;;;;;;;;;;4987987;28;20231;-73
2023/03/21 12:26:21;;;;;;;10.35;7.32;;;;;;;;;;4980932;28;20215;-72
2023/03/21 12:28:56;;;;;;;9.25;6.70;;;;;;;;;;4984921;28;20559;-72
2023/03/21 12:31:24;;;;;;;13.45;7.70;;;;;;;;;;4983061;28;20232;-72
2023/03/21 12:33:52;;;;;;;12.13;6.43;;;;;;;;;;4986205;28;20342;-72
2023/03/21 12:36:24;;;;;;;8.95;6.28;;;;;;;;;;4984290;28;20187;-72
2023/03/21 12:38:56;;;;;;;7.38;5.78;;;;;;;;;;4981531;28;20192;-73
2023/03/21 12:41:26;;;;;;;11.02;5.80;;;;;;;;;;4987045;28;20168;-73
2023/03/21 12:43:54;;;;;;;8.88;5.78;;;;;;;;;;4982103;28;20203;-73
2023/03/21 12:46:38;;;;;;;9.05;5.63;;;;;;;;;;4975744;28;20281;-74
2023/03/21 12:49:17;;;;;;;8.00;5.63;;;;;;;;;;4981050;28;20263;-72
2023/03/21 12:51:43;;;;;;;8.38;5.95;;;;;;;;;;4988348;28;20219;-73
2023/03/21 12:54:27;;;;;;;8.85;5.80;;;;;;;;;;4988111;28;20704;-73
2023/03/21 12:56:55;;;;;;;8.25;5.75;;;;;;;;;;4980440;28;20612;-73
2023/03/21 12:59:24;;;;;;;7.78;5.28;;;;;;;;;;4990689;28;20167;-72
2023/03/21 13:01:51;;;;;;;9.25;5.25;;;;;;;;;;4983095;28;20261;-72
2023/03/21 13:04:35;;;;;;;8.30;5.68;;;;;;;;;;4994784;28;20212;-72
2023/03/21 13:07:01;;;;;;;6.60;4.88;;;;;;;;;;4989221;28;20176;-72
2023/03/21 13:09:26;;;;;;;8.80;6.03;;;;;;;;;;4982148;28;20211;-72
2023/03/21 13:11:54;;;;;;;8.80;5.55;;;;;;;;;;4984545;28;20632;-71
2023/03/21 13:14:22;;;;;;;6.95;5.10;;;;;;;;;;4983998;28;20203;-72
2023/03/21 13:16:50;;;;;;;13.32;6.95;;;;;;;;;;4978462;28;20169;-72
2023/03/21 13:19:41;;;;;;;8.15;5.80;;;;;;;;;;4983107;28;20645;-72
2023/03/21 13:22:26;;;;;;;8.00;6.35;;;;;;;;;;4981292;28;20196;-72
2023/03/21 13:25:06;;;;;;;12.65;6.10;;;;;;;;;;4977319;28;20223;-73
2023/03/21 13:27:31;;;;;;;17.95;7.20;;;;;;;;;;4982315;28;20175;-72
2023/03/21 13:29:59;;;;;;;7.07;5.63;;;;;;;;;;4980899;28;20310;-72
2023/03/21 13:32:28;;;;;;;9.23;6.40;;;;;;;;;;4984098;28;20192;-72
2023/03/21 13:35:13;;;;;;;8.45;5.28;;;;;;;;;;4981824;28;20196;-72
2023/03/21 13:37:40;;;;;;;8.93;6.65;;;;;;;;;;4986318;28;20222;-72
2023/03/21 13:40:11;;;;;;;9.23;5.82;;;;;;;;;;4985348;28;20603;-73
2023/03/21 13:42:42;;;;;;;12.30;6.38;;;;;;;;;;4988801;28;20188;-73
2023/03/21 13:45:21;;;;;;;9.63;6.43;;;;;;;;;;4979456;28;20332;-72
2023/03/21 13:47:51;;;;;;;9.23;5.75;;;;;;;;;;4980744;28;20274;-72
2023/03/21 13:50:17;;;;;;;8.77;6.15;;;;;;;;;;4984385;28;20191;-72
2023/03/21 13:52:42;;;;;;;14.05;7.35;;;;;;;;;;4983589;28;20223;-72
2023/03/21 13:55:15;;;;;;;9.88;6.70;;;;;;;;;;4986114;28;20204;-73
2023/03/21 13:57:40;;;;;;;8.95;6.40;;;;;;;;;;4980580;28;20219;-70
2023/03/21 14:00:26;;;;;;;11.38;7.10;;;;;;;;;;4984753;28;20211;-71
2023/03/21 14:02:59;;;;;;;8.75;6.30;;;;;;;;;;4982475;28;20186;-71
2023/03/21 14:05:25;;;;;;;10.10;6.97;;;;;;;;;;4979804;28;20204;-71
2023/03/21 14:07:53;;;;;;;8.95;6.60;;;;;;;;;;4982295;28;20185;-72
2023/03/21 14:10:21;;;;;;;13.32;7.90;;;;;;;;;;4982150;28;20732;-71
2023/03/21 14:12:47;;;;;;;10.98;7.85;;;;;;;;;;4985086;28;20696;-71
2023/03/21 14:15:16;;;;;;;11.63;7.03;;;;;;;;;;4982759;28;20192;-72
2023/03/21 14:17:48;;;;;;;10.05;7.15;;;;;;;;;;4979790;28;20235;-72
2023/03/21 14:20:17;;;;;;;11.55;7.30;;;;;;;;;;4986376;28;20179;-72
2023/03/21 14:22:45;;;;;;;9.48;7.03;;;;;;;;;;4980566;28;20198;-72
2023/03/21 14:25:14;;;;;;;10.50;7.13;;;;;;;;;;4979795;28;20723;-72
2023/03/21 14:27:41;;;;;;;9.15;7.50;;;;;;;;;;4988726;28;20184;-72
2023/03/21 14:30:10;;;;;;;10.45;7.78;;;;;;;;;;4981547;28;20610;-72